Terminal Aerodrome Forecast
Issued by NWS Sioux Falls, SD

Home | Current Version | Previous Version | Text Only | Print | Product List | Glossary On
Versions: 1 2 3 4 5 6 7 8 9 10 11 12 13 14 15 16 17 18 19 20 21 22 23
000
FTUS43 KFSD 260520
TAFFSD
TAF
KFSD 260520Z 2606/2706 15007KT P6SM -TSRA BKN030CB
     FM260800 15005KT P6SM SCT040 BKN250
     FM261000 15005KT 5SM BR BKN012
     FM261400 15007KT P6SM SCT030
     FM270000 13005KT P6SM SCT030=

USA.gov is the U.S. government's official web portal to all federal, state and local government web resources and services.